»·PEaware :: N9137H KVNY-KSNA

N9137H :: KVNY-KSNA

FLIGHT INFORMATION

Flight Status: Arrived
Operator: Privately registered:
United States
More flights under this callsign
Pilot: Mark B. (402)
Aircraft: CESSNA 172 SKYHAWK
(C172)
More flights by this aircraft type
Origin: KVNY Van Nuys
United States
Destination: KSNA John Wayne-Orange Co
United States
More flights between these airports :: More routes between these airports
Route: +
File this flight plan on PilotEdge
Remarks: CAT 10
Altitude:
(Current/Filed)
0ft
Speed:
(Current/Filed)
0kts
Departed: 07-Jan-18 02:07 PM
Arrived: 07-Jan-18 02:40 PM
Distance/Time
Traveled:
44nm/0:33
Distance/Time
To Go:
Arrived

Flight Plot

Page will automatically refresh every two minutes.


Map Options




Map Legend


Flown Route
Filed Route
Departure Airport
Arrival Airport
Navaid (VOR, NDB)
Fix

Horizontal Profiles

Position Reports

Time Latitude Longitude Heading Altitude Ground
Speed
07-Jan-18 13:59 34.205723 -118.487683 87 769ft 12kts
07-Jan-18 14:00 34.206450 -118.487559 331 771ft 0kts
07-Jan-18 14:01 34.206450 -118.487559 331 771ft 0kts
07-Jan-18 14:02 34.206450 -118.487559 331 771ft 0kts
07-Jan-18 14:03 34.206450 -118.487559 331 771ft 0kts
07-Jan-18 14:04 34.206450 -118.487559 331 771ft 0kts
07-Jan-18 14:05 34.206450 -118.487559 331 771ft 0kts
07-Jan-18 14:06 34.206450 -118.487559 331 771ft 0kts
07-Jan-18 14:07 34.206983 -118.488007 334 772ft 10kts
07-Jan-18 14:08 34.210754 -118.488402 355 779ft 15kts
07-Jan-18 14:09 34.215256 -118.488867 350 791ft 15kts
07-Jan-18 14:10 34.218853 -118.489682 298 798ft 11kts
07-Jan-18 14:11 34.218889 -118.490497 268 799ft 0kts
07-Jan-18 14:12 34.218869 -118.490846 259 799ft 9kts
07-Jan-18 14:13 34.199628 -118.490297 181 1278ft 105kts
07-Jan-18 14:14 34.170838 -118.482491 165 2369ft 113kts
07-Jan-18 14:15 34.143590 -118.477495 197 2739ft 142kts
07-Jan-18 14:16 34.117185 -118.507960 229 2675ft 124kts
07-Jan-18 14:17 34.098924 -118.514791 72 3187ft 91kts
07-Jan-18 14:18 34.113240 -118.496159 12 4232ft 78kts
07-Jan-18 14:19 34.121539 -118.510465 188 5126ft 105kts
07-Jan-18 14:20 34.089624 -118.498187 163 5672ft 153kts
07-Jan-18 14:21 34.049788 -118.484151 166 5527ft 146kts
07-Jan-18 14:22 34.019014 -118.472764 160 5657ft 86kts
07-Jan-18 14:23 33.995002 -118.460882 155 5744ft 119kts
07-Jan-18 14:24 33.959385 -118.439317 152 5603ft 156kts
07-Jan-18 14:25 33.921783 -118.414616 142 5879ft 132kts
07-Jan-18 14:26 33.891377 -118.381929 134 5587ft 160kts
07-Jan-18 14:27 33.859643 -118.349699 142 5645ft 138kts
07-Jan-18 14:28 33.830625 -118.320459 133 5545ft 133kts
07-Jan-18 14:29 33.805986 -118.290618 139 5554ft 130kts
07-Jan-18 14:30 33.778622 -118.262720 134 5579ft 130kts
07-Jan-18 14:31 33.759760 -118.226130 122 5452ft 113kts
07-Jan-18 14:32 33.746108 -118.199674 124 5521ft 87kts
07-Jan-18 14:33 33.733180 -118.175716 137 5866ft 98kts
07-Jan-18 14:34 33.718534 -118.137887 113 5722ft 128kts
07-Jan-18 14:35 33.705099 -118.100330 119 5609ft 115kts
07-Jan-18 14:36 33.690032 -118.070277 103 5296ft 103kts
07-Jan-18 14:37 33.677433 -118.031299 74 4133ft 127kts
07-Jan-18 14:38 33.699323 -118.006366 40 3529ft 94kts
07-Jan-18 14:39 33.718215 -117.987673 41 3436ft 84kts
07-Jan-18 14:40 33.734958 -117.965604 84 3272ft 107kts
07-Jan-18 14:41 33.707457 -117.954639 219 2048ft 133kts
07-Jan-18 14:42 33.694444 -117.932285 74 1623ft 128kts
07-Jan-18 14:43 33.705647 -117.897194 75 1339ft 97kts
07-Jan-18 14:44 33.702221 -117.869344 128 763ft 75kts
07-Jan-18 14:45 33.684713 -117.863110 209 240ft 75kts
07-Jan-18 14:46 33.672136 -117.871896 269 49ft 20kts
07-Jan-18 14:47 33.672203 -117.872379 346 50ft 5kts
07-Jan-18 14:48 33.674984 -117.870922 19 50ft 1kts
07-Jan-18 14:49 33.674988 -117.870921 18 50ft 0kts
07-Jan-18 14:50 33.674993 -117.870919 16 50ft 1kts

Navigation Log

Ident Type
1. KVNY Airport
2. KSNA Airport